Time;durP1;ratioP1;P1;durP2;ratioP2;P2;SDS_P1;SDS_P2;PMS_P1;PMS_P2;Temp;Humidity;BMP_temperature;BMP_pressure;BME280_temperature;BME280_humidity;BME280_pressure;Samples;Min_cycle;Max_cycle;Signal;HPM_P1;HPM_P2
2023/07/16 00:00:55;;;;;;;;;14.40;13.40;;;;;26.93;100.00;98536.75;7736228;22;96235;-67
2023/07/16 00:03:58;;;;;;;;;13.40;13.40;;;;;26.95;100.00;98530.91;7708482;22;96707;-68
2023/07/16 00:07:01;;;;;;;;;13.00;12.00;;;;;27.01;100.00;98535.09;7733374;22;96826;-67
2023/07/16 00:10:07;;;;;;;;;12.25;11.50;;;;;27.01;100.00;98530.38;7706161;22;96596;-67
2023/07/16 00:13:10;;;;;;;;;9.00;9.00;;;;;26.99;100.00;98529.88;7732321;22;96271;-67
2023/07/16 00:16:13;;;;;;;;;11.25;10.00;;;;;26.72;100.00;98478.69;7704725;22;96599;-67
2023/07/16 00:19:17;;;;;;;;;12.40;11.40;;;;;26.97;100.00;98520.31;7733511;22;97164;-67
2023/07/16 00:22:20;;;;;;;;;11.00;11.00;;;;;26.95;100.00;98517.88;7706290;22;96631;-67
2023/07/16 00:25:25;;;;;;;;;12.60;12.00;;;;;26.86;100.00;98519.06;7706411;22;96556;-67
2023/07/16 00:28:28;;;;;;;;;11.40;10.40;;;;;26.79;100.00;98525.13;7735158;22;96951;-67
2023/07/16 00:31:32;;;;;;;;;14.50;13.00;;;;;26.78;100.00;98529.03;7734929;22;96106;-67
2023/07/16 00:34:35;;;;;;;;;13.00;12.00;;;;;26.78;100.00;98523.50;7709191;22;98324;-67
2023/07/16 00:37:39;;;;;;;;;9.20;8.20;;;;;26.76;100.00;98523.06;7736745;22;96469;-67
2023/07/16 00:40:44;;;;;;;;;14.00;11.00;;;;;26.66;100.00;98523.44;7737359;22;96435;-67
2023/07/16 00:43:47;;;;;;;;;11.40;11.40;;;;;26.59;100.00;98510.13;7738046;22;96996;-67
2023/07/16 00:46:51;;;;;;;;;12.00;12.00;;;;;26.52;100.00;98514.59;7737814;22;96276;-67
2023/07/16 00:49:54;;;;;;;;;13.50;13.00;;;;;26.44;100.00;98515.47;7709730;22;96765;-67
2023/07/16 00:52:58;;;;;;;;;14.20;13.20;;;;;26.33;100.00;98501.22;7709688;22;96343;-66
2023/07/16 00:56:02;;;;;;;;;13.60;11.60;;;;;26.24;100.00;98501.25;7707980;22;99164;-67
2023/07/16 00:59:06;;;;;;;;;13.00;13.00;;;;;26.15;100.00;98494.94;7737620;22;96326;-67
2023/07/16 01:02:09;;;;;;;;;13.80;12.80;;;;;26.08;100.00;98500.19;7737907;22;96295;-68
2023/07/16 01:05:12;;;;;;;;;12.00;11.40;;;;;26.02;100.00;98492.41;7709607;22;99684;-67
2023/07/16 01:08:22;;;;;;;;;13.40;13.40;;;;;25.99;100.00;98498.59;7736141;22;96861;-67
2023/07/16 01:11:28;;;;;;;;;14.00;13.00;;;;;25.97;100.00;98500.88;7737021;22;96831;-67
2023/07/16 01:14:32;;;;;;;;;14.00;13.00;;;;;25.97;100.00;98498.94;7735834;22;96261;-67
2023/07/16 01:17:39;;;;;;;;;11.00;10.75;;;;;25.96;100.00;98493.72;7681372;22;96703;-66
2023/07/16 01:20:42;;;;;;;;;9.00;8.80;;;;;26.01;100.00;98485.25;7684458;22;97986;-67
2023/07/16 01:24:04;;;;;;;;;11.00;11.00;;;;;26.03;100.00;98482.97;7709042;22;96538;-67
2023/07/16 01:27:29;;;;;;;;;9.00;9.00;;;;;26.16;100.00;98485.50;7709520;22;98340;-67
2023/07/16 01:30:37;;;;;;;;;12.00;12.00;;;;;26.27;100.00;98480.44;7709971;22;100429;-68
2023/07/16 01:33:43;;;;;;;;;10.60;10.00;;;;;26.25;100.00;98483.53;7736231;22;96347;-67
2023/07/16 01:36:50;;;;;;;;;11.00;10.00;;;;;26.27;100.00;98478.50;7709521;22;96346;-67
2023/07/16 01:39:54;;;;;;;;;9.40;9.40;;;;;26.25;100.00;98475.25;7736034;22;96316;-67
2023/07/16 01:42:57;;;;;;;;;13.00;12.00;;;;;26.19;100.00;98470.22;7737750;22;97000;-67
2023/07/16 01:46:03;;;;;;;;;13.40;12.00;;;;;26.12;100.00;98469.94;7736348;22;96369;-67
2023/07/16 01:49:06;;;;;;;;;11.00;10.00;;;;;26.07;100.00;98472.88;7683458;22;96705;-66
2023/07/16 01:52:10;;;;;;;;;13.00;11.00;;;;;25.99;100.00;98465.47;7708471;22;97230;-66
2023/07/16 01:55:13;;;;;;;;;12.00;11.60;;;;;25.87;100.00;98466.97;7735513;22;96383;-67
2023/07/16 01:58:16;;;;;;;;;11.00;11.00;;;;;25.81;100.00;98465.53;7735205;22;96368;-67
2023/07/16 02:01:21;;;;;;;;;11.00;11.00;;;;;25.69;100.00;98464.63;7710595;22;96237;-67
2023/07/16 02:04:25;;;;;;;;;12.00;11.00;;;;;25.61;100.00;98455.22;7708977;22;96709;-66
2023/07/16 02:07:28;;;;;;;;;13.00;12.00;;;;;25.52;100.00;98451.66;7709173;22;96742;-67
2023/07/16 02:10:32;;;;;;;;;14.00;12.25;;;;;25.33;100.00;98442.94;7707100;22;96640;-67
2023/07/16 02:13:35;;;;;;;;;15.00;15.00;;;;;25.36;100.00;98456.88;7735180;22;96535;-67
2023/07/16 02:16:39;;;;;;;;;15.00;15.00;;;;;25.24;100.00;98459.53;7707950;22;96616;-67
2023/07/16 02:19:43;;;;;;;;;15.80;15.20;;;;;25.18;100.00;98460.00;7735622;22;96365;-67
2023/07/16 02:22:46;;;;;;;;;16.50;15.75;;;;;25.13;100.00;98457.44;7734204;22;96163;-67
2023/07/16 02:25:49;;;;;;;;;17.00;16.60;;;;;25.09;100.00;98464.75;7736491;22;96280;-67
2023/07/16 02:28:52;;;;;;;;;16.00;15.00;;;;;25.03;100.00;98462.16;7736032;22;96235;-67
2023/07/16 02:31:59;;;;;;;;;15.00;15.00;;;;;24.96;100.00;98467.38;7710049;22;96267;-67
2023/07/16 02:35:03;;;;;;;;;15.80;14.00;;;;;24.91;100.00;98467.53;7735580;22;96261;-67
2023/07/16 02:38:07;;;;;;;;;17.40;15.40;;;;;24.86;100.00;98473.19;7734749;22;97150;-67
2023/07/16 02:41:10;;;;;;;;;18.80;15.80;;;;;24.81;100.00;98465.06;7736862;22;96323;-68
2023/07/16 02:44:14;;;;;;;;;13.50;13.25;;;;;24.75;100.00;98469.13;7737323;22;96224;-68
2023/07/16 02:47:19;;;;;;;;;17.00;16.40;;;;;24.69;100.00;98461.31;7710063;22;97519;-67
2023/07/16 02:50:26;;;;;;;;;17.40;15.00;;;;;24.65;100.00;98463.09;7736727;22;96590;-67
2023/07/16 02:53:29;;;;;;;;;17.25;16.00;;;;;24.64;100.00;98459.53;7735818;22;97533;-67
2023/07/16 02:56:32;;;;;;;;;13.20;12.80;;;;;24.63;100.00;98462.63;7735223;22;96507;-67
2023/07/16 02:59:35;;;;;;;;;15.00;15.00;;;;;24.59;100.00;98470.72;7709139;22;97454;-67
2023/07/16 03:02:40;;;;;;;;;16.60;16.00;;;;;24.56;100.00;98460.34;7708549;22;96655;-68
2023/07/16 03:05:43;;;;;;;;;16.00;16.00;;;;;24.52;100.00;98457.44;7708513;22;96878;-67
2023/07/16 03:08:47;;;;;;;;;17.00;16.00;;;;;24.47;100.00;98467.81;7735667;22;96380;-68
2023/07/16 03:11:52;;;;;;;;;15.80;15.40;;;;;24.45;100.00;98457.09;7735783;22;96835;-68
2023/07/16 03:14:55;;;;;;;;;16.25;15.25;;;;;24.48;100.00;98463.94;7709993;22;96271;-67
2023/07/16 03:18:00;;;;;;;;;20.00;19.00;;;;;24.46;100.00;98460.66;7709116;22;98953;-67
2023/07/16 03:21:03;;;;;;;;;18.25;17.00;;;;;24.48;100.00;98469.44;7735265;22;96289;-67
2023/07/16 03:24:06;;;;;;;;;15.60;15.00;;;;;24.46;100.00;98475.25;7708843;22;96250;-67
2023/07/16 03:27:11;;;;;;;;;17.25;16.00;;;;;24.44;100.00;98483.03;7705482;22;96392;-67
2023/07/16 03:30:22;;;;;;;;;16.00;15.00;;;;;24.49;100.00;98479.31;7734699;22;96494;-67
2023/07/16 03:33:27;;;;;;;;;18.00;15.60;;;;;24.53;100.00;98483.84;7734071;22;96411;-67
2023/07/16 03:36:32;;;;;;;;;17.00;17.00;;;;;24.59;100.00;98481.75;7734633;22;96718;-67
2023/07/16 03:39:35;;;;;;;;;17.00;16.20;;;;;24.64;100.00;98470.56;7735749;22;96260;-67
2023/07/16 03:42:38;;;;;;;;;17.00;17.00;;;;;24.68;100.00;98476.25;7707603;22;96679;-67
2023/07/16 03:45:42;;;;;;;;;17.00;17.00;;;;;24.73;100.00;98487.91;7707472;22;96640;-67
2023/07/16 03:48:47;;;;;;;;;18.00;18.00;;;;;24.78;100.00;98476.72;7734948;22;96902;-68
2023/07/16 03:51:50;;;;;;;;;19.40;17.00;;;;;24.85;100.00;98473.50;7708221;22;96490;-67
2023/07/16 03:54:53;;;;;;;;;16.00;16.00;;;;;24.92;100.00;98477.41;7732231;22;96527;-67
2023/07/16 03:57:57;;;;;;;;;17.00;16.00;;;;;25.03;100.00;98475.94;7707753;22;96316;-67
2023/07/16 04:01:01;;;;;;;;;17.00;16.75;;;;;25.04;100.00;98460.19;7734473;22;96535;-67
2023/07/16 04:04:06;;;;;;;;;18.40;16.60;;;;;25.28;100.00;98476.22;7735968;22;97576;-68
2023/07/16 04:07:09;;;;;;;;;17.00;16.00;;;;;25.39;100.00;98483.84;7737135;22;96457;-67
2023/07/16 04:10:13;;;;;;;;;15.60;14.60;;;;;25.49;100.00;98488.19;7736586;22;96201;-67
2023/07/16 04:13:16;;;;;;;;;19.40;17.00;;;;;25.61;100.00;98480.06;7735771;22;97007;-67
2023/07/16 04:16:20;;;;;;;;;16.00;14.75;;;;;25.62;100.00;98472.59;7735470;22;96664;-67
2023/07/16 04:19:24;;;;;;;;;15.00;14.00;;;;;25.82;100.00;98492.00;7708059;22;98993;-67
2023/07/16 04:22:28;;;;;;;;;15.00;14.40;;;;;25.97;100.00;98487.88;7735379;22;96628;-68
2023/07/16 04:25:31;;;;;;;;;17.60;16.00;;;;;26.10;100.00;98491.53;7736170;22;96414;-67
2023/07/16 04:28:34;;;;;;;;;19.20;18.00;;;;;26.24;100.00;98494.94;7738258;22;96398;-68
2023/07/16 04:31:37;;;;;;;;;17.00;16.00;;;;;26.38;100.00;98495.50;7710568;22;96464;-67
2023/07/16 04:34:42;;;;;;;;;14.20;13.60;;;;;26.52;100.00;98498.00;7738192;22;96482;-67
2023/07/16 04:37:45;;;;;;;;;16.60;16.00;;;;;26.65;100.00;98500.50;7738327;22;96285;-68
2023/07/16 04:40:49;;;;;;;;;16.20;15.80;;;;;26.72;100.00;98494.44;7738131;22;96380;-68
2023/07/16 04:43:52;;;;;;;;;17.00;16.00;;;;;26.92;100.00;98510.28;7709647;22;96753;-68
2023/07/16 04:46:56;;;;;;;;;16.40;14.40;;;;;27.05;100.00;98511.94;7708639;22;96674;-68
2023/07/16 04:50:00;;;;;;;;;15.00;15.00;;;;;27.19;100.00;98516.38;7708286;22;96851;-67
2023/07/16 04:53:04;;;;;;;;;19.00;17.40;;;;;27.31;100.00;98520.00;7735691;22;96259;-67
2023/07/16 04:56:12;;;;;;;;;17.00;16.00;;;;;27.41;100.00;98530.66;7735627;22;96914;-67
2023/07/16 04:59:16;;;;;;;;;16.80;16.00;;;;;27.62;100.00;98538.13;7734789;22;97605;-67
2023/07/16 05:02:19;;;;;;;;;15.60;13.60;;;;;27.74;100.00;98538.16;7708094;22;98572;-67
2023/07/16 05:05:24;;;;;;;;;16.00;16.00;;;;;27.85;100.00;98544.88;7737223;22;96317;-67
2023/07/16 05:08:27;;;;;;;;;13.40;12.40;;;;;27.95;100.00;98536.91;7736534;22;96294;-68
2023/07/16 05:11:30;;;;;;;;;15.00;13.00;;;;;28.10;100.00;98543.75;7737662;22;96219;-68
2023/07/16 05:14:45;;;;;;;;;14.67;14.00;;;;;28.25;100.00;98553.38;7735964;22;96161;-67
2023/07/16 05:17:48;;;;;;;;;14.00;12.00;;;;;28.39;100.00;98553.88;7738115;22;96513;-68
2023/07/16 05:20:53;;;;;;;;;16.00;14.00;;;;;28.54;100.00;98555.13;7737961;22;96395;-68
2023/07/16 05:23:56;;;;;;;;;15.80;14.80;;;;;28.70;100.00;98556.81;7708613;22;96846;-68
2023/07/16 05:26:59;;;;;;;;;15.00;13.00;;;;;28.75;100.00;98547.50;7737874;22;96349;-68
2023/07/16 05:30:03;;;;;;;;;15.00;14.00;;;;;29.01;100.00;98559.00;7737953;22;96903;-68
2023/07/16 05:33:07;;;;;;;;;13.20;13.20;;;;;29.17;100.00;98559.91;7738500;22;96832;-68
2023/07/16 05:36:12;;;;;;;;;14.00;13.00;;;;;29.34;100.00;98563.53;7709954;22;96631;-68
2023/07/16 05:39:15;;;;;;;;;15.20;13.80;;;;;29.49;100.00;98557.22;7737532;22;96345;-68
2023/07/16 05:42:18;;;;;;;;;14.00;13.00;;;;;29.65;100.00;98555.31;7737969;22;96971;-68
2023/07/16 05:45:23;;;;;;;;;14.00;13.00;;;;;29.80;100.00;98556.50;7737716;22;96245;-68
2023/07/16 05:48:26;;;;;;;;;13.00;12.20;;;;;29.88;100.00;98549.97;7737516;22;96267;-68
2023/07/16 05:51:31;;;;;;;;;13.00;13.00;;;;;30.11;100.00;98565.69;7737009;22;96407;-68
2023/07/16 05:54:34;;;;;;;;;13.00;12.60;;;;;30.21;100.00;98567.13;7736833;22;96270;-68
2023/07/16 05:57:37;;;;;;;;;13.00;12.80;;;;;30.44;100.00;98575.66;7736333;22;96433;-68
2023/07/16 06:00:40;;;;;;;;;14.75;13.25;;;;;30.61;100.00;98572.53;7735864;22;96373;-67
2023/07/16 06:03:43;;;;;;;;;14.40;13.00;;;;;30.78;100.00;98574.94;7736177;22;96261;-68
2023/07/16 06:06:48;;;;;;;;;12.00;12.00;;;;;30.93;100.00;98581.63;7736617;22;96359;-68
2023/07/16 06:09:54;;;;;;;;;14.50;14.50;;;;;31.04;100.00;98576.31;7709854;22;98461;-68
2023/07/16 06:12:58;;;;;;;;;12.60;11.40;;;;;31.14;100.00;98576.53;7736823;22;96282;-68
2023/07/16 06:16:02;;;;;;;;;11.40;10.60;;;;;31.16;100.00;98574.22;7709013;22;96591;-68
2023/07/16 06:19:07;;;;;;;;;12.50;12.00;;;;;31.13;100.00;98572.13;7736182;22;96369;-68
2023/07/16 06:22:12;;;;;;;;;11.75;11.50;;;;;31.12;100.00;98575.31;7736587;22;96283;-68
2023/07/16 06:25:15;;;;;;;;;11.00;11.00;;;;;31.22;100.00;98574.72;7737366;22;96494;-68
2023/07/16 06:28:18;;;;;;;;;12.20;10.40;;;;;31.30;100.00;98574.50;7737138;22;96922;-68
2023/07/16 06:31:21;;;;;;;;;10.00;9.00;;;;;31.40;100.00;98581.47;7708559;22;96264;-68
2023/07/16 06:34:28;;;;;;;;;11.40;11.00;;;;;31.54;100.00;98580.94;7738367;22;96940;-68
2023/07/16 06:37:33;;;;;;;;;11.25;11.00;;;;;31.69;100.00;98577.31;7735168;22;96868;-68
2023/07/16 06:40:36;;;;;;;;;12.00;12.00;;;;;31.80;100.00;98590.28;7709018;22;96705;-69
2023/07/16 06:43:39;;;;;;;;;11.40;11.40;;;;;31.94;100.00;98573.00;7737529;22;96381;-69
2023/07/16 06:46:43;;;;;;;;;11.80;11.20;;;;;32.15;100.00;98584.59;7735225;22;96224;-68
2023/07/16 06:49:46;;;;;;;;;10.00;9.00;;;;;32.33;100.00;98584.88;7710070;22;96798;-68
2023/07/16 06:52:50;;;;;;;;;12.20;11.60;;;;;32.50;100.00;98594.75;7737312;22;96282;-68
2023/07/16 06:55:53;;;;;;;;;10.00;10.00;;;;;32.56;100.00;98594.03;7736764;22;96311;-68
2023/07/16 06:58:57;;;;;;;;;10.80;9.80;;;;;32.58;100.00;98599.25;7736262;22;96750;-68
2023/07/16 07:02:00;;;;;;;;;11.25;10.00;;;;;32.58;100.00;98597.28;7736450;22;96230;-68
2023/07/16 07:05:03;;;;;;;;;9.00;9.00;;;;;32.66;100.00;98601.00;7736039;22;97698;-67
2023/07/16 07:08:09;;;;;;;;;11.00;11.00;;;;;32.84;100.00;98607.66;7708489;22;98497;-68
2023/07/16 07:11:12;;;;;;;;;10.00;10.00;;;;;33.04;100.00;98588.78;7736914;22;97488;-68
2023/07/16 07:14:15;;;;;;;;;10.40;10.00;;;;;33.25;100.00;98600.31;7737012;22;97067;-68
2023/07/16 07:17:19;;;;;;;;;11.80;11.00;;;;;33.47;100.00;98604.19;7709221;22;97710;-68
2023/07/16 07:20:22;;;;;;;;;11.00;11.00;;;;;33.53;100.00;98610.25;7737326;22;96830;-68
2023/07/16 07:23:27;;;;;;;;;9.00;9.00;;;;;33.60;100.00;98608.34;7708441;22;97099;-68
2023/07/16 07:26:30;;;;;;;;;9.20;9.20;;;;;33.66;100.00;98614.41;7737398;22;96245;-68
2023/07/16 07:29:33;;;;;;;;;10.00;9.00;;;;;33.84;100.00;98618.22;7736931;22;96270;-68
2023/07/16 07:32:38;;;;;;;;;11.40;10.40;;;;;34.09;100.00;98618.50;7735553;22;96526;-68
2023/07/16 07:35:41;;;;;;;;;11.00;11.00;;;;;34.25;100.00;98608.72;7707713;22;99667;-68
2023/07/16 07:38:46;;;;;;;;;12.00;11.40;;;;;34.33;100.00;98618.78;7732625;22;97580;-68
2023/07/16 07:41:49;;;;;;;;;11.75;11.00;;;;;34.52;100.00;98637.31;7707913;22;96260;-68
2023/07/16 07:44:53;;;;;;;;;13.00;12.60;;;;;34.80;100.00;98636.00;7736509;22;96311;-68
2023/07/16 07:47:56;;;;;;;;;9.60;9.00;;;;;35.04;100.00;98641.75;7708910;22;96279;-69
2023/07/16 07:50:59;;;;;;;;;14.00;12.00;;;;;35.28;100.00;98656.38;7708405;22;98388;-68
2023/07/16 07:54:03;;;;;;;;;11.00;10.00;;;;;35.45;98.74;98661.25;7731311;22;96749;-68
2023/07/16 07:57:07;;;;;;;;;12.00;11.00;;;;;35.57;95.26;98664.53;7734377;22;96832;-68
2023/07/16 08:00:12;;;;;;;;;10.00;10.00;;;;;35.80;97.08;98672.69;7682028;22;99442;-69
2023/07/16 08:03:17;;;;;;;;;12.40;12.00;;;;;35.96;92.43;98678.75;7682175;22;98322;-69
2023/07/16 08:06:21;;;;;;;;;11.00;10.00;;;;;36.03;87.53;98686.38;7705905;22;96615;-69
2023/07/16 08:09:27;;;;;;;;;11.60;11.00;;;;;36.13;90.52;98694.06;7735944;22;96846;-69
2023/07/16 08:12:30;;;;;;;;;11.00;10.00;;;;;36.26;91.60;98695.31;7707551;22;99342;-69
2023/07/16 08:15:34;;;;;;;;;12.00;11.00;;;;;36.32;92.18;98685.28;7707216;22;97434;-69
2023/07/16 08:18:37;;;;;;;;;11.00;10.60;;;;;36.27;93.95;98680.06;7681664;22;98468;-69
2023/07/16 08:21:40;;;;;;;;;10.00;9.60;;;;;36.45;96.94;98686.53;7734381;22;96644;-69
2023/07/16 08:24:45;;;;;;;;;11.00;10.20;;;;;36.72;96.16;98692.59;7732977;22;98281;-69
2023/07/16 08:27:48;;;;;;;;;13.00;12.50;;;;;36.96;96.03;98693.00;7733428;22;96309;-68
2023/07/16 08:30:52;;;;;;;;;10.00;10.00;;;;;37.22;95.68;98687.78;7734664;22;96384;-69
2023/07/16 08:33:55;;;;;;;;;11.00;11.00;;;;;37.37;95.37;98680.13;7734821;22;96276;-68
2023/07/16 08:36:59;;;;;;;;;10.00;9.00;;;;;37.52;89.01;98692.16;7706630;22;97041;-69
2023/07/16 08:40:05;;;;;;;;;11.00;11.00;;;;;37.56;91.39;98695.78;7707331;22;96542;-69
2023/07/16 08:43:10;;;;;;;;;12.40;12.00;;;;;37.73;85.45;98701.34;7733574;22;96822;-69
2023/07/16 08:46:14;;;;;;;;;12.00;11.60;;;;;37.85;85.31;98690.84;7734797;22;96219;-69
2023/07/16 08:49:19;;;;;;;;;12.00;11.75;;;;;37.95;83.30;98699.25;7736162;22;96813;-69
2023/07/16 08:52:22;;;;;;;;;13.00;12.80;;;;;37.99;77.30;98699.25;7736164;22;96519;-68
2023/07/16 08:55:27;;;;;;;;;10.00;10.00;;;;;38.11;79.17;98690.38;7709091;22;96595;-69
2023/07/16 08:58:31;;;;;;;;;12.80;11.80;;;;;38.16;72.70;98695.56;7709910;22;98394;-69
2023/07/16 09:01:34;;;;;;;;;10.00;9.40;;;;;38.31;73.78;98687.84;7735783;22;96470;-69
2023/07/16 09:04:38;;;;;;;;;9.40;9.00;;;;;38.39;76.15;98690.19;7709764;22;98297;-69
2023/07/16 09:07:41;;;;;;;;;11.50;11.50;;;;;38.66;76.04;98681.19;7737658;22;96230;-68
2023/07/16 09:10:53;;;;;;;;;11.25;10.25;;;;;38.77;67.39;98688.31;7737597;22;96734;-69
2023/07/16 09:13:56;;;;;;;;;10.60;10.40;;;;;38.68;65.39;98693.63;7737844;22;96258;-69
2023/07/16 09:17:00;;;;;;;;;10.60;10.00;;;;;38.79;67.70;98690.75;7738174;22;96725;-69
2023/07/16 09:20:04;;;;;;;;;9.20;9.20;;;;;38.86;69.54;98690.66;7737637;22;96317;-69
2023/07/16 09:23:07;;;;;;;;;10.00;10.00;;;;;39.03;67.99;98692.56;7710544;22;96250;-69
2023/07/16 09:26:11;;;;;;;;;10.60;10.20;;;;;39.01;63.69;98686.53;7682627;22;98434;-69
2023/07/16 09:29:15;;;;;;;;;12.00;11.00;;;;;39.00;71.19;98682.91;7709810;22;96308;-68
2023/07/16 09:32:18;;;;;;;;;11.00;11.00;;;;;39.09;66.92;98690.91;7737819;22;96542;-69
2023/07/16 09:35:22;;;;;;;;;12.00;11.00;;;;;39.09;65.54;98693.75;7737845;22;96076;-69
2023/07/16 09:38:25;;;;;;;;;11.00;10.60;;;;;39.00;62.78;98684.94;7738398;22;96218;-69
2023/07/16 09:41:31;;;;;;;;;10.00;9.60;;;;;39.00;67.56;98682.91;7736283;22;96238;-69
2023/07/16 09:44:35;;;;;;;;;8.00;8.00;;;;;38.94;64.83;98680.97;7737928;22;96471;-69
2023/07/16 09:47:38;;;;;;;;;11.00;10.00;;;;;38.69;65.62;98674.72;7737180;22;96240;-69
2023/07/16 09:50:50;;;;;;;;;11.25;11.00;;;;;38.55;68.43;98684.88;7710017;22;99119;-69
2023/07/16 09:53:54;;;;;;;;;12.50;11.50;;;;;38.73;73.84;98678.31;7734743;22;96748;-69
2023/07/16 09:57:02;;;;;;;;;10.00;10.00;;;;;38.99;70.44;98680.53;7736163;22;96190;-69
2023/07/16 10:00:11;;;;;;;;;9.75;9.00;;;;;39.08;64.83;98685.69;7735637;22;96415;-69
2023/07/16 10:03:16;;;;;;;;;11.00;11.00;;;;;38.92;65.54;98680.59;7708637;22;98680;-68
2023/07/16 10:06:20;;;;;;;;;9.00;9.00;;;;;38.84;73.56;98687.47;7681651;22;96649;-69
2023/07/16 10:09:38;;;;;;;;;10.00;9.75;;;;;39.04;65.52;98682.91;7706917;22;96763;-69
2023/07/16 10:12:42;;;;;;;;;8.40;8.40;;;;;38.91;62.35;98685.41;7734635;22;97210;-69
2023/07/16 10:15:54;;;;;;;;;11.00;10.00;;;;;38.88;60.17;98677.81;7733563;22;96308;-70
2023/07/16 10:19:00;;;;;;;;;9.60;8.00;;;;;38.89;61.59;98673.78;7708347;22;98787;-67
2023/07/16 10:22:04;;;;;;;;;8.00;8.00;;;;;38.76;59.53;98681.09;7707894;22;96321;-69
2023/07/16 10:25:11;;;;;;;;;9.80;9.00;;;;;38.84;60.63;98668.56;7708548;22;96807;-69
2023/07/16 10:28:15;;;;;;;;;11.60;11.00;;;;;38.92;63.27;98677.78;7736732;22;96208;-69
2023/07/16 10:31:21;;;;;;;;;11.20;11.00;;;;;38.84;60.96;98671.38;7708790;22;96817;-69
2023/07/16 10:34:26;;;;;;;;;8.40;8.40;;;;;38.80;61.15;98667.78;7737432;22;96201;-69
2023/07/16 10:37:29;;;;;;;;;10.20;9.60;;;;;38.77;60.87;98671.41;7707865;22;96571;-69
2023/07/16 10:40:33;;;;;;;;;14.40;13.40;;;;;39.02;64.88;98653.50;7734306;22;96201;-69
2023/07/16 10:43:37;;;;;;;;;11.00;10.00;;;;;39.11;60.27;98662.28;7707017;22;96804;-69
2023/07/16 10:46:42;;;;;;;;;9.20;9.00;;;;;39.27;59.55;98648.44;7707589;22;99054;-69
2023/07/16 10:49:46;;;;;;;;;11.00;10.00;;;;;39.31;61.31;98655.63;7681938;22;96966;-69
2023/07/16 10:52:53;;;;;;;;;10.60;9.60;;;;;39.51;61.99;98657.88;7708484;22;97285;-69
2023/07/16 10:55:59;;;;;;;;;9.00;8.20;;;;;39.40;56.45;98661.59;7708436;22;99227;-69
2023/07/16 10:59:04;;;;;;;;;9.00;9.00;;;;;39.43;56.75;98657.16;7736645;22;96553;-69
2023/07/16 11:02:11;;;;;;;;;9.00;9.00;;;;;39.63;58.73;98671.44;7736537;22;96711;-69
2023/07/16 11:05:18;;;;;;;;;10.60;10.60;;;;;39.96;57.34;98659.34;7709063;22;96344;-69
2023/07/16 11:08:24;;;;;;;;;9.00;9.00;;;;;40.23;55.01;98667.88;7736433;22;96528;-68
2023/07/16 11:11:30;;;;;;;;;9.40;9.40;;;;;40.30;48.58;98658.50;7736418;22;96349;-69
2023/07/16 11:14:35;;;;;;;;;9.60;9.00;;;;;40.29;47.14;98665.38;7708267;22;96711;-69
2023/07/16 11:17:39;;;;;;;;;8.20;8.20;;;;;40.27;48.32;98653.72;7681765;22;96582;-68
2023/07/16 11:20:43;;;;;;;;;10.60;10.60;;;;;40.27;52.03;98654.50;7707808;22;98918;-68
2023/07/16 11:23:46;;;;;;;;;10.00;9.00;;;;;40.41;50.22;98653.50;7735276;22;96826;-69
2023/07/16 11:26:53;;;;;;;;;14.00;12.00;;;;;40.60;53.07;98642.28;7733030;22;96265;-69
2023/07/16 11:29:59;;;;;;;;;10.00;10.00;;;;;40.82;48.28;98653.25;7733966;22;96215;-69
2023/07/16 11:33:02;;;;;;;;;10.00;9.40;;;;;41.06;49.96;98643.56;7735146;22;96927;-69
2023/07/16 11:36:06;;;;;;;;;10.20;10.00;;;;;41.28;45.13;98643.97;7733297;22;97471;-69
2023/07/16 11:39:11;;;;;;;;;10.20;9.20;;;;;41.36;43.94;98651.88;7707171;22;98486;-69
2023/07/16 11:42:15;;;;;;;;;8.00;8.00;;;;;41.34;41.98;98653.56;7735082;22;96768;-69
2023/07/16 11:45:22;;;;;;;;;8.40;8.00;;;;;41.21;39.92;98659.03;7734105;22;96314;-70
2023/07/16 11:48:26;;;;;;;;;10.00;9.00;;;;;41.13;43.55;98649.09;7736278;22;96473;-69
2023/07/16 11:51:30;;;;;;;;;13.60;12.60;;;;;41.25;43.21;98647.66;7736367;22;96835;-69
2023/07/16 11:54:33;;;;;;;;;23.00;22.00;;;;;41.42;42.98;98641.66;7733945;22;96760;-69
2023/07/16 11:57:36;;;;;;;;;8.00;8.00;;;;;41.39;42.59;98638.91;7707583;22;97042;-69
2023/07/16 12:00:41;;;;;;;;;15.60;14.60;;;;;41.41;45.52;98639.25;7732216;22;96641;-69
2023/07/16 12:03:44;;;;;;;;;11.80;11.20;;;;;41.53;45.17;98646.34;7705046;22;99079;-68
2023/07/16 12:06:47;;;;;;;;;8.60;8.60;;;;;41.60;43.83;98632.03;7731647;22;98362;-70
2023/07/16 12:09:50;;;;;;;;;11.60;11.00;;;;;41.58;44.93;98640.97;7706862;22;97188;-69
2023/07/16 12:12:54;;;;;;;;;12.00;10.40;;;;;41.75;48.17;98636.94;7704191;22;97818;-69
2023/07/16 12:15:59;;;;;;;;;13.40;12.40;;;;;41.84;47.08;98631.50;7735295;22;96310;-70
2023/07/16 12:19:02;;;;;;;;;11.00;10.67;;;;;41.92;45.73;98633.00;7731548;22;96714;-69
2023/07/16 12:22:06;;;;;;;;;10.40;10.00;;;;;41.97;46.72;98630.88;7734397;22;96317;-70
2023/07/16 12:25:09;;;;;;;;;10.00;9.00;;;;;41.91;44.66;98630.59;7733627;22;97061;-70
2023/07/16 12:28:13;;;;;;;;;12.00;12.00;;;;;41.74;45.17;98638.19;7710466;22;97587;-69
2023/07/16 12:31:17;;;;;;;;;13.00;12.00;;;;;41.76;45.48;98635.72;7737576;22;96238;-69
2023/07/16 12:34:21;;;;;;;;;13.00;12.00;;;;;41.74;49.39;98631.72;7736690;22;96646;-69
2023/07/16 12:37:24;;;;;;;;;12.00;12.00;;;;;41.88;48.67;98617.31;7737764;22;96243;-69
2023/07/16 12:40:30;;;;;;;;;14.00;12.40;;;;;42.07;47.57;98624.16;7735560;22;96313;-69
2023/07/16 12:43:34;;;;;;;;;14.00;13.00;;;;;42.24;46.32;98622.94;7710931;22;98311;-69
2023/07/16 12:46:40;;;;;;;;;11.20;11.00;;;;;42.07;44.65;98622.13;7709161;22;96718;-69
2023/07/16 12:49:43;;;;;;;;;11.60;11.00;;;;;42.08;45.38;98623.72;7736275;22;96491;-69
2023/07/16 12:52:46;;;;;;;;;13.80;12.80;;;;;42.14;46.86;98621.16;7708782;22;96481;-69
2023/07/16 12:55:49;;;;;;;;;12.00;11.75;;;;;42.21;46.59;98621.00;7709120;22;96851;-69
2023/07/16 12:58:53;;;;;;;;;12.00;12.00;;;;;42.22;44.92;98605.59;7709216;22;97074;-69
2023/07/16 13:01:57;;;;;;;;;14.40;13.00;;;;;42.27;45.30;98614.41;7735513;22;96565;-69
2023/07/16 13:05:00;;;;;;;;;13.20;13.00;;;;;42.19;48.31;98603.63;7735728;22;96493;-69
2023/07/16 13:08:04;;;;;;;;;15.00;13.40;;;;;42.16;47.76;98607.34;7735625;22;96383;-68
2023/07/16 13:11:07;;;;;;;;;12.00;12.00;;;;;42.23;50.54;98605.16;7735769;22;96077;-70
2023/07/16 13:14:10;;;;;;;;;13.40;12.00;;;;;42.17;48.19;98612.59;7736826;22;96738;-69
2023/07/16 13:17:16;;;;;;;;;13.40;12.40;;;;;41.96;46.01;98609.44;7738105;22;96279;-70
2023/07/16 13:20:20;;;;;;;;;15.00;15.00;;;;;41.91;49.03;98617.22;7709674;22;96636;-69
2023/07/16 13:23:23;;;;;;;;;12.60;12.00;;;;;41.94;51.30;98619.16;7736960;22;96290;-68
2023/07/16 13:26:26;;;;;;;;;14.40;13.40;;;;;41.93;50.53;98617.56;7735845;22;96517;-69
2023/07/16 13:29:30;;;;;;;;;14.00;14.00;;;;;41.93;44.78;98616.78;7708466;22;98410;-69
2023/07/16 13:32:34;;;;;;;;;14.00;14.00;;;;;42.02;48.60;98614.16;7736170;22;96531;-70
2023/07/16 13:35:38;;;;;;;;;14.50;13.50;;;;;42.04;51.42;98614.50;7736610;22;96363;-70
2023/07/16 13:38:41;;;;;;;;;16.20;15.00;;;;;41.93;47.23;98611.91;7737316;22;96719;-70
2023/07/16 13:41:44;;;;;;;;;14.40;14.40;;;;;41.76;50.71;98604.59;7708976;22;97693;-70
2023/07/16 13:44:48;;;;;;;;;15.60;15.00;;;;;41.88;49.54;98603.16;7737045;22;96734;-70
2023/07/16 13:47:53;;;;;;;;;14.60;14.60;;;;;41.67;44.41;98607.22;7709874;22;96704;-70
2023/07/16 13:50:57;;;;;;;;;13.00;13.00;;;;;41.27;45.41;98608.41;7737845;22;96567;-70
2023/07/16 13:54:00;;;;;;;;;14.25;13.25;;;;;40.94;47.19;98605.38;7735926;22;96858;-70
2023/07/16 13:57:04;;;;;;;;;14.20;13.20;;;;;40.67;49.34;98604.63;7735913;22;96847;-70
2023/07/16 14:00:09;;;;;;;;;16.00;15.00;;;;;40.56;50.78;98598.34;7735300;22;96866;-70
2023/07/16 14:03:14;;;;;;;;;13.00;12.75;;;;;40.70;49.53;98606.63;7737307;22;96463;-70